createdAt,value
2022-12-20T00:03:55.124Z,1.85
2022-12-20T00:08:59.056Z,1.87
2022-12-20T00:14:00.700Z,1.82
2022-12-20T00:19:05.003Z,1.82
2022-12-20T00:24:07.124Z,1.84
2022-12-20T00:29:08.811Z,1.85
2022-12-20T00:34:10.789Z,1.82
2022-12-20T00:39:12.468Z,1.79
2022-12-20T00:44:14.126Z,1.83
2022-12-20T00:49:16.576Z,1.87
2022-12-20T00:54:18.247Z,1.82
2022-12-20T00:59:20.794Z,1.80
2022-12-20T01:04:25.938Z,1.86
2022-12-20T01:09:27.564Z,1.91
2022-12-20T01:14:29.392Z,1.97
2022-12-20T01:19:31.077Z,2.04
2022-12-20T01:24:32.682Z,2.02
2022-12-20T01:29:34.273Z,2.05
2022-12-20T01:34:35.999Z,2.03
2022-12-20T01:39:37.640Z,1.91
2022-12-20T01:44:42.353Z,2.08
2022-12-20T01:49:46.583Z,2.08
2022-12-20T01:54:55.138Z,2.10
2022-12-20T01:59:57.406Z,2.16
2022-12-20T02:04:59.238Z,2.14
2022-12-20T02:10:01.756Z,2.19
2022-12-20T02:15:18.325Z,2.20
2022-12-20T02:20:38.509Z,2.22
2022-12-20T02:26:02.013Z,2.23
2022-12-20T02:31:07.336Z,2.30
2022-12-20T02:36:09.170Z,2.22
2022-12-20T02:41:43.143Z,2.25
2022-12-20T02:46:45.144Z,2.26
2022-12-20T02:51:48.986Z,2.27
2022-12-20T02:56:56.240Z,2.21
2022-12-20T03:01:59.694Z,2.24
2022-12-20T03:07:10.471Z,2.25
2022-12-20T03:12:13.225Z,2.24
2022-12-20T03:17:15.196Z,2.22
2022-12-20T03:22:17.162Z,2.21
2022-12-20T03:27:19.665Z,2.25
2022-12-20T03:32:21.739Z,2.30
2022-12-20T03:37:23.543Z,2.31
2022-12-20T03:42:25.700Z,2.34
2022-12-20T03:47:27.442Z,2.39
2022-12-20T03:52:30.221Z,2.33
2022-12-20T03:57:31.940Z,2.29
2022-12-20T04:02:34.671Z,2.32
2022-12-20T04:07:36.646Z,2.35
2022-12-20T04:12:38.385Z,2.34
2022-12-20T04:17:44.322Z,2.36
2022-12-20T04:22:50.873Z,2.48
2022-12-20T04:27:52.702Z,2.46
2022-12-20T04:32:54.945Z,2.44
2022-12-20T04:37:57.642Z,2.45
2022-12-20T04:42:59.870Z,2.45
2022-12-20T04:48:21.129Z,2.39
2022-12-20T04:53:42.555Z,2.43
2022-12-20T04:58:46.242Z,2.42
2022-12-20T05:03:49.185Z,2.42
2022-12-20T05:08:51.266Z,2.45
2022-12-20T05:13:53.015Z,2.48
2022-12-20T05:18:56.097Z,2.48
2022-12-20T05:24:16.825Z,2.50
2022-12-20T05:29:41.003Z,2.48
2022-12-20T05:34:42.679Z,2.69
2022-12-20T05:39:44.875Z,2.62
2022-12-20T05:44:52.982Z,2.60
2022-12-20T05:49:56.367Z,2.65
2022-12-20T05:54:58.167Z,2.68
2022-12-20T06:00:01.175Z,2.73
2022-12-20T06:05:07.214Z,2.72
2022-12-20T06:10:09.756Z,2.74
2022-12-20T06:15:26.607Z,2.72
2022-12-20T06:20:28.620Z,2.69
2022-12-20T06:25:32.969Z,2.74
2022-12-20T06:30:35.200Z,2.75
2022-12-20T06:35:42.156Z,2.75
2022-12-20T06:40:44.372Z,2.73
2022-12-20T06:45:46.176Z,2.72
2022-12-20T06:50:55.304Z,2.72
2022-12-20T06:55:58.338Z,2.68
2022-12-20T07:01:00.844Z,2.72
2022-12-20T07:06:02.593Z,2.72
2022-12-20T07:11:07.986Z,2.68
2022-12-20T07:16:10.158Z,2.71
2022-12-20T07:21:14.089Z,2.75
2022-12-20T07:26:15.869Z,2.77
2022-12-20T07:31:17.624Z,2.78
2022-12-20T07:36:20.215Z,2.84
2022-12-20T07:41:22.166Z,2.82
2022-12-20T07:46:23.930Z,2.92
2022-12-20T07:51:31.257Z,2.89
2022-12-20T07:56:40.815Z,2.93
2022-12-20T08:01:44.302Z,2.92
2022-12-20T08:06:46.482Z,2.97
2022-12-20T08:11:48.858Z,2.92
2022-12-20T08:16:50.798Z,2.98
2022-12-20T08:21:52.505Z,2.91
2022-12-20T08:26:54.087Z,2.95
2022-12-20T08:31:55.719Z,2.92
2022-12-20T08:36:57.341Z,2.91
2022-12-20T08:41:58.984Z,2.88
2022-12-20T08:47:00.640Z,2.90
2022-12-20T08:52:02.337Z,2.86
2022-12-20T08:57:03.947Z,2.84
2022-12-20T09:02:06.765Z,2.88
2022-12-20T09:07:08.706Z,2.86
2022-12-20T09:12:10.320Z,2.91
2022-12-20T09:17:12.472Z,3.01
2022-12-20T09:22:14.088Z,2.99
2022-12-20T09:27:15.779Z,2.96
2022-12-20T09:32:17.389Z,3.06
2022-12-20T09:37:19.015Z,3.01
2022-12-20T09:42:22.712Z,3.10
2022-12-20T09:47:25.128Z,3.17
2022-12-20T09:52:56.501Z,3.22
2022-12-20T09:58:10.293Z,3.33
2022-12-20T10:03:16.809Z,3.29
2022-12-20T10:08:29.951Z,3.52
2022-12-20T10:13:36.533Z,3.40
2022-12-20T10:19:06.016Z,3.39
2022-12-20T10:24:16.889Z,3.28
2022-12-20T10:29:19.689Z,3.31
2022-12-20T10:34:21.337Z,3.32
2022-12-20T10:39:40.814Z,3.42
2022-12-20T10:44:44.145Z,3.44
2022-12-20T10:49:45.758Z,3.47
2022-12-20T10:54:47.800Z,3.43
2022-12-20T10:59:55.049Z,3.37
2022-12-20T11:05:01.225Z,3.39
2022-12-20T11:10:27.538Z,3.37
2022-12-20T11:15:34.823Z,3.37
2022-12-20T11:20:53.506Z,3.43
2022-12-20T11:26:19.890Z,3.52
2022-12-20T11:31:36.525Z,3.61
2022-12-20T11:37:16.494Z,3.64
2022-12-20T11:42:24.083Z,3.47
2022-12-20T11:47:25.791Z,3.40
2022-12-20T11:52:48.840Z,3.41
2022-12-20T11:58:19.728Z,3.50
2022-12-20T12:03:33.354Z,3.49
2022-12-20T12:08:55.361Z,3.46
2022-12-20T12:13:57.865Z,3.46
2022-12-20T12:19:00.985Z,3.50
2022-12-20T12:24:23.689Z,3.47
2022-12-20T12:29:25.657Z,3.43
2022-12-20T12:34:39.354Z,3.33
2022-12-20T12:40:05.210Z,3.42
2022-12-20T12:45:28.424Z,3.39
2022-12-20T12:50:37.732Z,3.39
2022-12-20T12:55:40.834Z,3.41
2022-12-20T13:00:52.869Z,3.35
2022-12-20T13:05:54.609Z,3.24
2022-12-20T13:10:57.950Z,3.37
2022-12-20T13:16:11.504Z,3.38
2022-12-20T13:21:32.643Z,3.41
2022-12-20T13:26:50.978Z,3.39
2022-12-20T13:31:54.774Z,3.38
2022-12-20T13:36:59.454Z,3.38
2022-12-20T13:42:24.095Z,3.34
2022-12-20T13:47:25.712Z,3.31
2022-12-20T13:52:32.565Z,3.28
2022-12-20T13:57:44.968Z,3.25
2022-12-20T14:02:46.939Z,3.23
2022-12-20T14:07:58.670Z,3.26
2022-12-20T14:13:00.412Z,3.24
2022-12-20T14:18:21.889Z,3.30
2022-12-20T14:23:38.275Z,3.26
2022-12-20T14:28:44.342Z,3.21
2022-12-20T14:33:46.003Z,3.26
2022-12-20T14:38:49.789Z,3.21
2022-12-20T14:43:56.679Z,3.23
2022-12-20T14:49:19.107Z,3.20
2022-12-20T14:55:05.621Z,3.26
2022-12-20T15:00:18.557Z,3.21
2022-12-20T15:05:35.935Z,3.22
2022-12-20T15:10:37.862Z,3.25
2022-12-20T15:15:39.689Z,3.21
2022-12-20T15:20:45.899Z,3.23
2022-12-20T15:25:48.454Z,3.17
2022-12-20T15:30:51.301Z,3.18
2022-12-20T15:35:53.769Z,3.20
2022-12-20T15:41:00.690Z,3.18
2022-12-20T15:46:02.295Z,3.18
2022-12-20T15:51:31.380Z,3.23
2022-12-20T15:56:33.083Z,3.33
2022-12-20T16:01:40.833Z,3.24
2022-12-20T16:06:43.857Z,3.28
2022-12-20T16:11:45.872Z,3.26
2022-12-20T16:16:49.946Z,3.26
2022-12-20T16:21:52.360Z,3.25
2022-12-20T16:26:53.989Z,3.29
2022-12-20T16:31:55.758Z,3.19
2022-12-20T16:36:57.422Z,3.21
2022-12-20T16:42:01.532Z,3.26
2022-12-20T16:47:03.205Z,3.27
2022-12-20T16:52:06.585Z,3.28
2022-12-20T16:57:08.614Z,3.29
2022-12-20T17:02:23.743Z,3.28
2022-12-20T17:07:25.944Z,3.26
2022-12-20T17:12:27.604Z,3.26
2022-12-20T17:17:29.240Z,3.28
2022-12-20T17:22:30.913Z,3.23
2022-12-20T17:27:32.613Z,3.27
2022-12-20T17:32:34.253Z,3.20
2022-12-20T17:37:35.821Z,3.23
2022-12-20T17:42:37.470Z,3.25
2022-12-20T17:47:39.107Z,3.23
2022-12-20T17:52:40.720Z,3.22
2022-12-20T17:57:42.353Z,3.17
2022-12-20T18:02:44.097Z,3.19
2022-12-20T18:07:55.597Z,3.20
2022-12-20T18:12:57.205Z,3.25
2022-12-20T18:17:58.855Z,3.26
2022-12-20T18:23:00.521Z,3.24
2022-12-20T18:28:02.394Z,3.30
2022-12-20T18:33:04.024Z,3.28
2022-12-20T18:38:05.625Z,3.28
2022-12-20T18:43:07.235Z,3.26
2022-12-20T18:48:08.876Z,3.25
2022-12-20T18:53:10.534Z,3.26
2022-12-20T18:58:13.522Z,3.27
2022-12-20T19:03:16.193Z,3.31
2022-12-20T19:08:19.047Z,3.28
2022-12-20T19:13:21.205Z,3.31
2022-12-20T19:18:22.849Z,3.30
2022-12-20T19:23:24.553Z,3.30
2022-12-20T19:28:26.187Z,3.33
2022-12-20T19:33:27.846Z,3.33
2022-12-20T19:38:29.446Z,3.37
2022-12-20T19:43:31.337Z,3.33
2022-12-20T19:48:33.699Z,3.28
2022-12-20T19:53:35.909Z,3.19
2022-12-20T19:58:38.039Z,3.33
2022-12-20T20:03:39.716Z,3.32
2022-12-20T20:08:41.643Z,3.31
2022-12-20T20:13:43.357Z,3.34
2022-12-20T20:18:46.123Z,3.34
2022-12-20T20:23:48.728Z,3.46
2022-12-20T20:28:50.977Z,3.40
2022-12-20T20:33:52.797Z,3.36
2022-12-20T20:38:54.453Z,3.33
2022-12-20T20:43:56.077Z,3.25
2022-12-20T20:48:58.362Z,3.33
2022-12-20T20:53:59.992Z,3.27
2022-12-20T20:59:06.898Z,3.23
2022-12-20T21:04:09.863Z,3.27
2022-12-20T21:09:11.715Z,3.28
2022-12-20T21:14:13.436Z,3.29
2022-12-20T21:19:16.383Z,3.27
2022-12-20T21:24:18.190Z,3.28
2022-12-20T21:29:20.315Z,3.29
2022-12-20T21:34:21.968Z,3.26
2022-12-20T21:39:24.367Z,3.27
2022-12-20T21:44:26.014Z,3.26
2022-12-20T21:49:27.592Z,3.28
2022-12-20T21:54:29.190Z,3.25
2022-12-20T21:59:30.917Z,3.26
2022-12-20T22:04:33.335Z,3.29
2022-12-20T22:09:34.931Z,3.27
2022-12-20T22:14:36.555Z,3.27
2022-12-20T22:19:38.368Z,3.28
2022-12-20T22:24:40.121Z,3.11
2022-12-20T22:29:41.727Z,3.19
2022-12-20T22:34:43.325Z,3.24
2022-12-20T22:39:44.960Z,3.24
2022-12-20T22:44:46.565Z,3.26
2022-12-20T22:49:48.131Z,3.24
2022-12-20T22:54:49.755Z,3.12
2022-12-20T22:59:51.375Z,3.27
2022-12-20T23:04:53.622Z,3.11
2022-12-20T23:09:55.214Z,3.16
2022-12-20T23:15:15.232Z,3.17
2022-12-20T23:20:35.606Z,3.20
2022-12-20T23:25:37.190Z,3.22
2022-12-20T23:30:38.784Z,3.23
2022-12-20T23:35:40.422Z,3.19
2022-12-20T23:40:42.049Z,3.19
2022-12-20T23:45:43.680Z,3.23
2022-12-20T23:50:45.366Z,3.24
2022-12-20T23:55:56.990Z,3.21
